Wainfleet, United Kingdom
Current Conditions -  °F | °C
As of 9:02 PM on Saturday 22 Nov 2014 (Local Time) from EGXC Reporting Station
Moderate Fog Moderate Fog  
Wind Chill: 54°   Ceiling: 100
Heat Index: 54°   Visibility: 0.25mi
Dew Point: 52°   Wind: 5mph
Humidity: 94%   Direction: 230°SW
Pressure: 29.94"   Gusts: NA
Location:  53.03°N, 0.27°E
Report Text: EGXC 222102Z 23004KT 0400 FG BKN001 12/11 Q1014 RED
Loading
Personal Weather Stations






























Interactive Weather Map New forecast layout! Learn more

10-Day Weather Forecast

Advertisements
Track Severe Weather on mobile